Castleton, Vermont
Current Conditions -  °F | °C
As of 9:55 PM on Wednesday 26 Nov 2014 (Local Time) from KRUT Reporting Station
Overcast Overcast  
Wind Chill: -8°   Ceiling: 500
Heat Index: -3°   Visibility: 2mi
Dew Point: -4°   Wind: 9mph
Humidity: 93%   Direction: 330°NNW
Pressure: 29.89"   Gusts: NA
Location:  43.61°N, 73.18°W
Report Text: KRUT 270255Z 33008KT 2SM OVC005 M03/M04 A2989 RMK AO1 57020
Loading
Personal Weather Stations






























Interactive Weather Map New forecast layout! Learn more

10-Day Weather Forecast

Advertisements
Track Severe Weather on mobile